sensor_id;sensor_type;location;lat;lon;timestamp;temperature;humidity
22436;DHT22;11385;50.822;4.324;2024-03-22T00:01:55;13.50;99.90
22436;DHT22;11385;50.822;4.324;2024-03-22T00:04:22;13.40;99.90
22436;DHT22;11385;50.822;4.324;2024-03-22T00:06:49;13.50;99.90
22436;DHT22;11385;50.822;4.324;2024-03-22T00:09:16;13.60;99.90
22436;DHT22;11385;50.822;4.324;2024-03-22T00:11:44;13.70;99.90
22436;DHT22;11385;50.822;4.324;2024-03-22T00:14:11;13.70;99.90
22436;DHT22;11385;50.822;4.324;2024-03-22T00:16:39;13.60;99.90
22436;DHT22;11385;50.822;4.324;2024-03-22T00:19:06;13.70;99.90
22436;DHT22;11385;50.822;4.324;2024-03-22T00:21:32;13.80;99.90
22436;DHT22;11385;50.822;4.324;2024-03-22T00:23:59;13.70;99.90
22436;DHT22;11385;50.822;4.324;2024-03-22T00:26:27;13.60;99.90
22436;DHT22;11385;50.822;4.324;2024-03-22T00:28:54;13.60;99.90
22436;DHT22;11385;50.822;4.324;2024-03-22T00:31:21;13.60;99.90
22436;DHT22;11385;50.822;4.324;2024-03-22T00:33:48;13.50;99.90
22436;DHT22;11385;50.822;4.324;2024-03-22T00:36:15;13.70;99.90
22436;DHT22;11385;50.822;4.324;2024-03-22T00:38:41;13.60;99.90
22436;DHT22;11385;50.822;4.324;2024-03-22T00:41:08;13.50;99.90
22436;DHT22;11385;50.822;4.324;2024-03-22T00:43:35;13.50;99.90
22436;DHT22;11385;50.822;4.324;2024-03-22T00:46:01;13.40;99.90
22436;DHT22;11385;50.822;4.324;2024-03-22T00:48:29;13.40;99.90
22436;DHT22;11385;50.822;4.324;2024-03-22T00:50:56;13.50;99.90
22436;DHT22;11385;50.822;4.324;2024-03-22T00:53:22;13.40;99.90
22436;DHT22;11385;50.822;4.324;2024-03-22T00:55:49;13.30;99.90
22436;DHT22;11385;50.822;4.324;2024-03-22T00:58:18;13.40;99.90
22436;DHT22;11385;50.822;4.324;2024-03-22T01:00:45;13.50;99.90
22436;DHT22;11385;50.822;4.324;2024-03-22T01:03:12;13.40;99.90
22436;DHT22;11385;50.822;4.324;2024-03-22T01:05:39;13.30;99.90
22436;DHT22;11385;50.822;4.324;2024-03-22T01:08:06;13.20;99.90
22436;DHT22;11385;50.822;4.324;2024-03-22T01:10:33;13.20;99.90
22436;DHT22;11385;50.822;4.324;2024-03-22T01:13:00;12.90;99.90
22436;DHT22;11385;50.822;4.324;2024-03-22T01:15:27;12.90;99.90
22436;DHT22;11385;50.822;4.324;2024-03-22T01:17:53;12.80;99.90
22436;DHT22;11385;50.822;4.324;2024-03-22T01:20:21;12.70;99.90
22436;DHT22;11385;50.822;4.324;2024-03-22T01:22:48;12.80;99.90
22436;DHT22;11385;50.822;4.324;2024-03-22T01:25:15;12.80;99.90
22436;DHT22;11385;50.822;4.324;2024-03-22T01:27:41;12.80;99.90
22436;DHT22;11385;50.822;4.324;2024-03-22T01:30:08;12.90;99.90
22436;DHT22;11385;50.822;4.324;2024-03-22T01:32:36;12.90;99.90
22436;DHT22;11385;50.822;4.324;2024-03-22T01:35:03;13.00;99.90
22436;DHT22;11385;50.822;4.324;2024-03-22T01:37:30;13.10;99.90
22436;DHT22;11385;50.822;4.324;2024-03-22T01:39:57;13.00;99.90
22436;DHT22;11385;50.822;4.324;2024-03-22T01:42:24;12.90;99.90
22436;DHT22;11385;50.822;4.324;2024-03-22T01:44:50;12.70;99.90
22436;DHT22;11385;50.822;4.324;2024-03-22T01:47:19;12.60;99.90
22436;DHT22;11385;50.822;4.324;2024-03-22T01:49:47;12.60;99.90
22436;DHT22;11385;50.822;4.324;2024-03-22T01:52:15;12.60;99.90
22436;DHT22;11385;50.822;4.324;2024-03-22T01:54:41;12.50;99.90
22436;DHT22;11385;50.822;4.324;2024-03-22T01:57:08;12.50;99.90
22436;DHT22;11385;50.822;4.324;2024-03-22T01:59:36;12.50;99.90
22436;DHT22;11385;50.822;4.324;2024-03-22T02:02:03;12.50;99.90
22436;DHT22;11385;50.822;4.324;2024-03-22T02:04:29;12.60;99.90
22436;DHT22;11385;50.822;4.324;2024-03-22T02:06:56;12.60;99.90
22436;DHT22;11385;50.822;4.324;2024-03-22T02:09:23;12.40;99.90
22436;DHT22;11385;50.822;4.324;2024-03-22T02:11:49;12.40;99.90
22436;DHT22;11385;50.822;4.324;2024-03-22T02:14:16;12.50;99.90
22436;DHT22;11385;50.822;4.324;2024-03-22T02:16:44;12.30;99.90
22436;DHT22;11385;50.822;4.324;2024-03-22T02:19:11;12.20;99.90
22436;DHT22;11385;50.822;4.324;2024-03-22T02:21:38;12.30;99.90
22436;DHT22;11385;50.822;4.324;2024-03-22T02:24:04;12.40;99.90
22436;DHT22;11385;50.822;4.324;2024-03-22T02:26:31;12.40;99.90
22436;DHT22;11385;50.822;4.324;2024-03-22T02:28:58;12.40;99.90
22436;DHT22;11385;50.822;4.324;2024-03-22T02:31:25;12.50;99.90
22436;DHT22;11385;50.822;4.324;2024-03-22T02:33:53;12.50;99.90
22436;DHT22;11385;50.822;4.324;2024-03-22T02:36:19;12.50;99.90
22436;DHT22;11385;50.822;4.324;2024-03-22T02:38:46;12.60;99.90
22436;DHT22;11385;50.822;4.324;2024-03-22T02:41:12;12.60;99.90
22436;DHT22;11385;50.822;4.324;2024-03-22T02:43:39;12.70;99.90
22436;DHT22;11385;50.822;4.324;2024-03-22T02:46:06;12.70;99.90
22436;DHT22;11385;50.822;4.324;2024-03-22T02:48:32;12.70;99.90
22436;DHT22;11385;50.822;4.324;2024-03-22T02:50:59;12.60;99.90
22436;DHT22;11385;50.822;4.324;2024-03-22T02:53:26;12.70;99.90
22436;DHT22;11385;50.822;4.324;2024-03-22T02:55:52;12.80;99.90
22436;DHT22;11385;50.822;4.324;2024-03-22T02:58:20;12.70;99.90
22436;DHT22;11385;50.822;4.324;2024-03-22T03:00:48;12.80;99.90
22436;DHT22;11385;50.822;4.324;2024-03-22T03:03:14;12.40;99.90
22436;DHT22;11385;50.822;4.324;2024-03-22T03:05:42;12.40;99.90
22436;DHT22;11385;50.822;4.324;2024-03-22T03:08:10;12.40;99.90
22436;DHT22;11385;50.822;4.324;2024-03-22T03:10:36;12.30;99.90
22436;DHT22;11385;50.822;4.324;2024-03-22T03:13:03;12.50;99.90
22436;DHT22;11385;50.822;4.324;2024-03-22T03:15:30;12.40;99.90
22436;DHT22;11385;50.822;4.324;2024-03-22T03:17:56;12.40;99.90
22436;DHT22;11385;50.822;4.324;2024-03-22T03:20:23;12.30;99.90
22436;DHT22;11385;50.822;4.324;2024-03-22T03:22:49;12.40;99.90
22436;DHT22;11385;50.822;4.324;2024-03-22T03:25:16;12.50;99.90
22436;DHT22;11385;50.822;4.324;2024-03-22T03:27:43;12.40;99.90
22436;DHT22;11385;50.822;4.324;2024-03-22T03:30:09;12.50;99.90
22436;DHT22;11385;50.822;4.324;2024-03-22T03:32:36;12.50;99.90
22436;DHT22;11385;50.822;4.324;2024-03-22T03:35:03;12.30;99.90
22436;DHT22;11385;50.822;4.324;2024-03-22T03:37:31;12.40;99.90
22436;DHT22;11385;50.822;4.324;2024-03-22T03:39:57;12.20;99.90
22436;DHT22;11385;50.822;4.324;2024-03-22T03:42:24;12.10;99.90
22436;DHT22;11385;50.822;4.324;2024-03-22T03:44:51;12.30;99.90
22436;DHT22;11385;50.822;4.324;2024-03-22T03:47:18;12.20;99.90
22436;DHT22;11385;50.822;4.324;2024-03-22T03:49:46;12.20;99.90
22436;DHT22;11385;50.822;4.324;2024-03-22T03:52:13;12.20;99.90
22436;DHT22;11385;50.822;4.324;2024-03-22T03:54:40;12.30;99.90
22436;DHT22;11385;50.822;4.324;2024-03-22T03:57:07;12.40;99.90
22436;DHT22;11385;50.822;4.324;2024-03-22T03:59:33;12.40;99.90
22436;DHT22;11385;50.822;4.324;2024-03-22T04:02:00;12.30;99.90
22436;DHT22;11385;50.822;4.324;2024-03-22T04:04:27;12.30;99.90
22436;DHT22;11385;50.822;4.324;2024-03-22T04:06:53;12.30;99.90
22436;DHT22;11385;50.822;4.324;2024-03-22T04:09:20;12.30;99.90
22436;DHT22;11385;50.822;4.324;2024-03-22T04:11:46;12.50;99.90
22436;DHT22;11385;50.822;4.324;2024-03-22T04:14:13;12.40;99.90
22436;DHT22;11385;50.822;4.324;2024-03-22T04:16:40;12.20;99.90
22436;DHT22;11385;50.822;4.324;2024-03-22T04:19:07;12.20;99.90
22436;DHT22;11385;50.822;4.324;2024-03-22T04:21:33;12.30;99.90
22436;DHT22;11385;50.822;4.324;2024-03-22T04:24:00;12.30;99.90
22436;DHT22;11385;50.822;4.324;2024-03-22T04:26:27;12.20;99.90
22436;DHT22;11385;50.822;4.324;2024-03-22T04:28:54;12.20;99.90
22436;DHT22;11385;50.822;4.324;2024-03-22T04:31:21;12.20;99.90
22436;DHT22;11385;50.822;4.324;2024-03-22T04:33:47;12.10;99.90
22436;DHT22;11385;50.822;4.324;2024-03-22T04:36:15;12.10;99.90
22436;DHT22;11385;50.822;4.324;2024-03-22T04:38:42;12.00;99.90
22436;DHT22;11385;50.822;4.324;2024-03-22T04:41:10;12.00;99.90
22436;DHT22;11385;50.822;4.324;2024-03-22T04:43:38;12.00;99.90
22436;DHT22;11385;50.822;4.324;2024-03-22T04:46:05;12.10;99.90
22436;DHT22;11385;50.822;4.324;2024-03-22T04:48:31;11.90;99.90
22436;DHT22;11385;50.822;4.324;2024-03-22T04:50:58;11.90;99.90
22436;DHT22;11385;50.822;4.324;2024-03-22T04:53:24;11.90;99.90
22436;DHT22;11385;50.822;4.324;2024-03-22T04:55:51;11.90;99.90
22436;DHT22;11385;50.822;4.324;2024-03-22T04:58:19;11.90;99.90
22436;DHT22;11385;50.822;4.324;2024-03-22T05:00:48;11.90;99.90
22436;DHT22;11385;50.822;4.324;2024-03-22T05:03:16;11.90;99.90
22436;DHT22;11385;50.822;4.324;2024-03-22T05:05:43;12.00;99.90
22436;DHT22;11385;50.822;4.324;2024-03-22T05:08:11;11.80;99.90
22436;DHT22;11385;50.822;4.324;2024-03-22T05:10:37;11.70;99.90
22436;DHT22;11385;50.822;4.324;2024-03-22T05:13:04;11.60;99.90
22436;DHT22;11385;50.822;4.324;2024-03-22T05:15:31;11.70;99.90
22436;DHT22;11385;50.822;4.324;2024-03-22T05:17:58;11.60;99.90
22436;DHT22;11385;50.822;4.324;2024-03-22T05:20:25;11.60;99.90
22436;DHT22;11385;50.822;4.324;2024-03-22T05:22:52;11.60;99.90
22436;DHT22;11385;50.822;4.324;2024-03-22T05:25:19;11.70;99.90
22436;DHT22;11385;50.822;4.324;2024-03-22T05:27:46;11.70;99.90
22436;DHT22;11385;50.822;4.324;2024-03-22T05:30:13;11.60;99.90
22436;DHT22;11385;50.822;4.324;2024-03-22T05:32:40;11.50;99.90
22436;DHT22;11385;50.822;4.324;2024-03-22T05:35:07;11.40;99.90
22436;DHT22;11385;50.822;4.324;2024-03-22T05:37:34;11.40;99.90
22436;DHT22;11385;50.822;4.324;2024-03-22T05:40:02;11.30;99.90
22436;DHT22;11385;50.822;4.324;2024-03-22T05:42:30;11.30;99.90
22436;DHT22;11385;50.822;4.324;2024-03-22T05:44:57;11.30;99.90
22436;DHT22;11385;50.822;4.324;2024-03-22T05:47:24;11.40;99.90
22436;DHT22;11385;50.822;4.324;2024-03-22T05:49:50;11.40;99.90
22436;DHT22;11385;50.822;4.324;2024-03-22T05:52:18;11.40;99.90
22436;DHT22;11385;50.822;4.324;2024-03-22T05:54:45;11.40;99.90
22436;DHT22;11385;50.822;4.324;2024-03-22T05:57:12;11.20;99.90
22436;DHT22;11385;50.822;4.324;2024-03-22T05:59:38;11.30;99.90
22436;DHT22;11385;50.822;4.324;2024-03-22T06:02:05;11.20;99.90
22436;DHT22;11385;50.822;4.324;2024-03-22T06:04:32;11.20;99.90
22436;DHT22;11385;50.822;4.324;2024-03-22T06:06:59;11.10;99.90
22436;DHT22;11385;50.822;4.324;2024-03-22T06:09:27;11.20;99.90
22436;DHT22;11385;50.822;4.324;2024-03-22T06:11:59;11.20;99.90
22436;DHT22;11385;50.822;4.324;2024-03-22T06:14:26;11.10;99.90
22436;DHT22;11385;50.822;4.324;2024-03-22T06:16:53;11.00;99.90
22436;DHT22;11385;50.822;4.324;2024-03-22T06:19:19;11.10;99.90
22436;DHT22;11385;50.822;4.324;2024-03-22T06:21:46;11.10;99.90
22436;DHT22;11385;50.822;4.324;2024-03-22T06:24:12;11.10;99.90
22436;DHT22;11385;50.822;4.324;2024-03-22T06:26:39;11.10;99.90
22436;DHT22;11385;50.822;4.324;2024-03-22T06:29:06;11.10;99.90
22436;DHT22;11385;50.822;4.324;2024-03-22T06:31:32;11.20;99.90
22436;DHT22;11385;50.822;4.324;2024-03-22T06:33:59;11.20;99.90
22436;DHT22;11385;50.822;4.324;2024-03-22T06:36:29;11.30;99.90
22436;DHT22;11385;50.822;4.324;2024-03-22T06:38:56;11.30;99.90
22436;DHT22;11385;50.822;4.324;2024-03-22T06:41:23;11.10;99.90
22436;DHT22;11385;50.822;4.324;2024-03-22T06:43:49;11.20;99.90
22436;DHT22;11385;50.822;4.324;2024-03-22T06:46:16;11.10;99.90
22436;DHT22;11385;50.822;4.324;2024-03-22T06:48:43;11.20;99.90
22436;DHT22;11385;50.822;4.324;2024-03-22T06:51:10;11.30;99.90
22436;DHT22;11385;50.822;4.324;2024-03-22T06:53:36;11.40;99.90
22436;DHT22;11385;50.822;4.324;2024-03-22T06:56:03;11.30;99.90
22436;DHT22;11385;50.822;4.324;2024-03-22T06:58:30;11.20;99.90
22436;DHT22;11385;50.822;4.324;2024-03-22T07:00:56;11.40;99.90
22436;DHT22;11385;50.822;4.324;2024-03-22T07:03:23;11.50;99.90
22436;DHT22;11385;50.822;4.324;2024-03-22T07:05:50;11.40;99.90
22436;DHT22;11385;50.822;4.324;2024-03-22T07:08:17;11.40;99.90
22436;DHT22;11385;50.822;4.324;2024-03-22T07:10:43;11.30;99.90
22436;DHT22;11385;50.822;4.324;2024-03-22T07:13:11;11.30;99.90
22436;DHT22;11385;50.822;4.324;2024-03-22T07:15:38;11.20;99.90
22436;DHT22;11385;50.822;4.324;2024-03-22T07:18:04;11.30;99.90
22436;DHT22;11385;50.822;4.324;2024-03-22T07:20:32;11.40;99.90
22436;DHT22;11385;50.822;4.324;2024-03-22T07:22:58;11.20;99.90
22436;DHT22;11385;50.822;4.324;2024-03-22T07:25:25;11.20;99.90
22436;DHT22;11385;50.822;4.324;2024-03-22T07:27:52;11.20;99.90
22436;DHT22;11385;50.822;4.324;2024-03-22T07:30:19;11.30;99.90
22436;DHT22;11385;50.822;4.324;2024-03-22T07:32:47;11.30;99.90
22436;DHT22;11385;50.822;4.324;2024-03-22T07:35:14;11.40;99.90
22436;DHT22;11385;50.822;4.324;2024-03-22T07:37:40;11.50;99.90
22436;DHT22;11385;50.822;4.324;2024-03-22T07:40:08;11.50;99.90
22436;DHT22;11385;50.822;4.324;2024-03-22T07:42:34;11.40;99.90
22436;DHT22;11385;50.822;4.324;2024-03-22T07:45:01;11.40;99.90
22436;DHT22;11385;50.822;4.324;2024-03-22T07:47:28;11.40;99.90
22436;DHT22;11385;50.822;4.324;2024-03-22T07:49:55;11.30;99.90
22436;DHT22;11385;50.822;4.324;2024-03-22T07:52:22;11.40;99.90
22436;DHT22;11385;50.822;4.324;2024-03-22T07:54:50;11.50;99.90
22436;DHT22;11385;50.822;4.324;2024-03-22T07:57:17;11.50;99.90
22436;DHT22;11385;50.822;4.324;2024-03-22T07:59:43;11.50;99.90
22436;DHT22;11385;50.822;4.324;2024-03-22T08:02:10;11.50;99.90
22436;DHT22;11385;50.822;4.324;2024-03-22T08:04:37;11.60;99.90
22436;DHT22;11385;50.822;4.324;2024-03-22T08:07:04;11.60;99.90
22436;DHT22;11385;50.822;4.324;2024-03-22T08:09:30;11.50;99.90
22436;DHT22;11385;50.822;4.324;2024-03-22T08:11:57;11.50;99.90
22436;DHT22;11385;50.822;4.324;2024-03-22T08:14:24;11.50;99.90
22436;DHT22;11385;50.822;4.324;2024-03-22T08:16:50;11.60;99.90
22436;DHT22;11385;50.822;4.324;2024-03-22T08:19:17;11.60;99.90
22436;DHT22;11385;50.822;4.324;2024-03-22T08:21:43;11.60;99.90
22436;DHT22;11385;50.822;4.324;2024-03-22T08:24:10;11.60;99.90
22436;DHT22;11385;50.822;4.324;2024-03-22T08:26:37;11.70;99.90
22436;DHT22;11385;50.822;4.324;2024-03-22T08:29:03;11.60;99.90
22436;DHT22;11385;50.822;4.324;2024-03-22T08:31:30;11.90;99.90
22436;DHT22;11385;50.822;4.324;2024-03-22T08:33:57;12.00;99.90
22436;DHT22;11385;50.822;4.324;2024-03-22T08:36:23;12.00;99.90
22436;DHT22;11385;50.822;4.324;2024-03-22T08:38:50;12.10;99.90
22436;DHT22;11385;50.822;4.324;2024-03-22T08:41:17;12.00;99.90
22436;DHT22;11385;50.822;4.324;2024-03-22T08:43:44;12.00;99.90
22436;DHT22;11385;50.822;4.324;2024-03-22T08:46:11;12.10;99.90
22436;DHT22;11385;50.822;4.324;2024-03-22T08:48:38;12.40;99.90
22436;DHT22;11385;50.822;4.324;2024-03-22T08:51:04;12.10;99.90
22436;DHT22;11385;50.822;4.324;2024-03-22T08:53:31;12.00;99.90
22436;DHT22;11385;50.822;4.324;2024-03-22T08:55:59;12.00;99.90
22436;DHT22;11385;50.822;4.324;2024-03-22T08:58:26;11.90;99.90
22436;DHT22;11385;50.822;4.324;2024-03-22T09:00:52;12.10;99.90
22436;DHT22;11385;50.822;4.324;2024-03-22T09:03:20;12.30;99.90
22436;DHT22;11385;50.822;4.324;2024-03-22T09:05:47;12.50;99.90
22436;DHT22;11385;50.822;4.324;2024-03-22T09:08:14;12.70;99.90
22436;DHT22;11385;50.822;4.324;2024-03-22T09:10:40;12.90;99.90
22436;DHT22;11385;50.822;4.324;2024-03-22T09:13:07;12.80;99.90
22436;DHT22;11385;50.822;4.324;2024-03-22T09:15:35;12.80;99.90
22436;DHT22;11385;50.822;4.324;2024-03-22T09:18:02;12.60;99.90
22436;DHT22;11385;50.822;4.324;2024-03-22T09:20:29;12.60;99.90
22436;DHT22;11385;50.822;4.324;2024-03-22T09:22:55;12.40;99.90
22436;DHT22;11385;50.822;4.324;2024-03-22T09:25:24;12.40;99.90
22436;DHT22;11385;50.822;4.324;2024-03-22T09:27:50;12.70;99.90
22436;DHT22;11385;50.822;4.324;2024-03-22T09:30:17;12.90;99.90
22436;DHT22;11385;50.822;4.324;2024-03-22T09:32:45;13.00;99.90
22436;DHT22;11385;50.822;4.324;2024-03-22T09:35:11;12.80;99.90
22436;DHT22;11385;50.822;4.324;2024-03-22T09:37:41;12.90;99.90
22436;DHT22;11385;50.822;4.324;2024-03-22T09:40:08;13.00;99.90
22436;DHT22;11385;50.822;4.324;2024-03-22T09:42:37;13.00;99.90
22436;DHT22;11385;50.822;4.324;2024-03-22T09:45:08;13.00;99.90
22436;DHT22;11385;50.822;4.324;2024-03-22T09:47:37;13.10;99.90
22436;DHT22;11385;50.822;4.324;2024-03-22T09:50:07;13.20;99.90
22436;DHT22;11385;50.822;4.324;2024-03-22T09:52:35;13.10;99.90
22436;DHT22;11385;50.822;4.324;2024-03-22T09:55:06;13.10;99.90
22436;DHT22;11385;50.822;4.324;2024-03-22T09:57:38;12.90;99.90
22436;DHT22;11385;50.822;4.324;2024-03-22T10:00:08;12.90;99.90
22436;DHT22;11385;50.822;4.324;2024-03-22T10:02:35;12.90;99.90
22436;DHT22;11385;50.822;4.324;2024-03-22T10:05:02;12.90;99.90
22436;DHT22;11385;50.822;4.324;2024-03-22T10:07:30;13.10;99.90
22436;DHT22;11385;50.822;4.324;2024-03-22T10:09:59;13.20;99.90
22436;DHT22;11385;50.822;4.324;2024-03-22T10:12:25;13.40;99.90
22436;DHT22;11385;50.822;4.324;2024-03-22T10:14:54;13.20;99.90
22436;DHT22;11385;50.822;4.324;2024-03-22T10:17:22;13.10;99.90
22436;DHT22;11385;50.822;4.324;2024-03-22T10:19:49;13.00;99.90
22436;DHT22;11385;50.822;4.324;2024-03-22T10:22:17;13.00;99.90
22436;DHT22;11385;50.822;4.324;2024-03-22T10:24:44;13.00;99.90
22436;DHT22;11385;50.822;4.324;2024-03-22T10:27:11;13.10;99.90
22436;DHT22;11385;50.822;4.324;2024-03-22T10:29:38;13.30;99.90
22436;DHT22;11385;50.822;4.324;2024-03-22T10:32:05;13.20;99.90
22436;DHT22;11385;50.822;4.324;2024-03-22T10:34:33;13.10;99.90
22436;DHT22;11385;50.822;4.324;2024-03-22T10:37:00;13.10;99.90
22436;DHT22;11385;50.822;4.324;2024-03-22T10:39:28;13.30;99.90
22436;DHT22;11385;50.822;4.324;2024-03-22T10:41:56;13.30;99.90
22436;DHT22;11385;50.822;4.324;2024-03-22T10:44:23;13.40;99.90
22436;DHT22;11385;50.822;4.324;2024-03-22T10:46:50;13.40;99.90
22436;DHT22;11385;50.822;4.324;2024-03-22T10:49:20;13.30;99.90
22436;DHT22;11385;50.822;4.324;2024-03-22T10:51:51;13.50;99.90
22436;DHT22;11385;50.822;4.324;2024-03-22T10:54:21;13.70;99.90
22436;DHT22;11385;50.822;4.324;2024-03-22T10:56:50;13.80;99.90
22436;DHT22;11385;50.822;4.324;2024-03-22T10:59:19;13.80;99.90
22436;DHT22;11385;50.822;4.324;2024-03-22T11:01:46;13.70;99.90
22436;DHT22;11385;50.822;4.324;2024-03-22T11:04:16;13.80;99.90
22436;DHT22;11385;50.822;4.324;2024-03-22T11:06:48;13.80;99.90
22436;DHT22;11385;50.822;4.324;2024-03-22T11:09:22;13.70;99.90
22436;DHT22;11385;50.822;4.324;2024-03-22T11:11:51;13.70;99.90
22436;DHT22;11385;50.822;4.324;2024-03-22T11:14:18;13.60;99.90
22436;DHT22;11385;50.822;4.324;2024-03-22T11:16:47;13.40;99.90
22436;DHT22;11385;50.822;4.324;2024-03-22T11:19:14;13.40;99.90
22436;DHT22;11385;50.822;4.324;2024-03-22T11:21:41;13.50;99.90
22436;DHT22;11385;50.822;4.324;2024-03-22T11:24:07;13.70;99.90
22436;DHT22;11385;50.822;4.324;2024-03-22T11:26:34;13.80;99.90
22436;DHT22;11385;50.822;4.324;2024-03-22T11:29:01;13.80;99.90
22436;DHT22;11385;50.822;4.324;2024-03-22T11:31:28;13.80;99.90
22436;DHT22;11385;50.822;4.324;2024-03-22T11:33:54;13.60;99.90
22436;DHT22;11385;50.822;4.324;2024-03-22T11:36:22;13.40;99.90
22436;DHT22;11385;50.822;4.324;2024-03-22T11:38:49;13.30;99.90
22436;DHT22;11385;50.822;4.324;2024-03-22T11:41:20;13.20;99.90
22436;DHT22;11385;50.822;4.324;2024-03-22T11:43:47;13.30;99.90
22436;DHT22;11385;50.822;4.324;2024-03-22T11:46:15;13.40;99.90
22436;DHT22;11385;50.822;4.324;2024-03-22T11:48:43;13.40;99.90
22436;DHT22;11385;50.822;4.324;2024-03-22T11:51:10;13.30;99.90
22436;DHT22;11385;50.822;4.324;2024-03-22T11:53:37;13.40;99.90
22436;DHT22;11385;50.822;4.324;2024-03-22T11:56:04;13.30;99.90
22436;DHT22;11385;50.822;4.324;2024-03-22T11:58:31;13.30;99.90
22436;DHT22;11385;50.822;4.324;2024-03-22T12:00:58;13.20;99.90
22436;DHT22;11385;50.822;4.324;2024-03-22T12:03:25;13.30;99.90
22436;DHT22;11385;50.822;4.324;2024-03-22T12:05:54;13.40;99.90
22436;DHT22;11385;50.822;4.324;2024-03-22T12:08:22;13.30;99.90
22436;DHT22;11385;50.822;4.324;2024-03-22T12:10:48;13.30;99.90
22436;DHT22;11385;50.822;4.324;2024-03-22T12:13:15;13.30;99.90
22436;DHT22;11385;50.822;4.324;2024-03-22T12:15:44;13.20;99.90
22436;DHT22;11385;50.822;4.324;2024-03-22T12:18:11;13.10;99.90
22436;DHT22;11385;50.822;4.324;2024-03-22T12:20:38;13.30;99.90
22436;DHT22;11385;50.822;4.324;2024-03-22T12:23:05;13.20;99.90
22436;DHT22;11385;50.822;4.324;2024-03-22T12:25:32;13.20;99.90
22436;DHT22;11385;50.822;4.324;2024-03-22T12:27:59;13.30;99.90
22436;DHT22;11385;50.822;4.324;2024-03-22T12:30:25;13.20;99.90
22436;DHT22;11385;50.822;4.324;2024-03-22T12:32:53;13.10;99.90
22436;DHT22;11385;50.822;4.324;2024-03-22T12:35:20;13.10;99.90
22436;DHT22;11385;50.822;4.324;2024-03-22T12:37:47;13.00;99.90
22436;DHT22;11385;50.822;4.324;2024-03-22T12:40:13;12.90;99.90
22436;DHT22;11385;50.822;4.324;2024-03-22T12:42:41;13.00;99.90
22436;DHT22;11385;50.822;4.324;2024-03-22T12:45:08;13.10;99.90
22436;DHT22;11385;50.822;4.324;2024-03-22T12:47:35;13.10;99.90
22436;DHT22;11385;50.822;4.324;2024-03-22T12:50:01;12.80;99.90
22436;DHT22;11385;50.822;4.324;2024-03-22T12:52:30;12.90;99.90
22436;DHT22;11385;50.822;4.324;2024-03-22T12:54:57;13.00;99.90
22436;DHT22;11385;50.822;4.324;2024-03-22T12:57:23;12.90;99.90
22436;DHT22;11385;50.822;4.324;2024-03-22T12:59:51;12.90;99.90
22436;DHT22;11385;50.822;4.324;2024-03-22T13:02:18;13.00;99.90
22436;DHT22;11385;50.822;4.324;2024-03-22T13:04:44;13.00;99.90
22436;DHT22;11385;50.822;4.324;2024-03-22T13:07:11;13.00;99.90
22436;DHT22;11385;50.822;4.324;2024-03-22T13:09:38;12.90;99.90
22436;DHT22;11385;50.822;4.324;2024-03-22T13:12:04;12.80;99.90
22436;DHT22;11385;50.822;4.324;2024-03-22T13:14:31;13.10;99.90
22436;DHT22;11385;50.822;4.324;2024-03-22T13:16:58;13.10;99.90
22436;DHT22;11385;50.822;4.324;2024-03-22T13:19:24;13.20;99.90
22436;DHT22;11385;50.822;4.324;2024-03-22T13:21:51;13.40;99.90
22436;DHT22;11385;50.822;4.324;2024-03-22T13:24:17;13.40;99.90
22436;DHT22;11385;50.822;4.324;2024-03-22T13:26:45;13.60;99.90
22436;DHT22;11385;50.822;4.324;2024-03-22T13:29:11;13.50;99.90
22436;DHT22;11385;50.822;4.324;2024-03-22T13:31:39;13.40;99.90
22436;DHT22;11385;50.822;4.324;2024-03-22T13:34:06;13.30;99.90
22436;DHT22;11385;50.822;4.324;2024-03-22T13:36:33;13.40;99.90
22436;DHT22;11385;50.822;4.324;2024-03-22T13:39:00;13.30;99.90
22436;DHT22;11385;50.822;4.324;2024-03-22T13:41:26;13.40;99.90
22436;DHT22;11385;50.822;4.324;2024-03-22T13:43:54;13.30;99.90
22436;DHT22;11385;50.822;4.324;2024-03-22T13:46:23;13.40;99.90
22436;DHT22;11385;50.822;4.324;2024-03-22T13:48:52;13.40;99.90
22436;DHT22;11385;50.822;4.324;2024-03-22T13:51:19;13.40;99.90
22436;DHT22;11385;50.822;4.324;2024-03-22T13:53:46;13.50;99.90
22436;DHT22;11385;50.822;4.324;2024-03-22T13:56:12;13.50;99.90
22436;DHT22;11385;50.822;4.324;2024-03-22T13:58:39;13.40;99.90
22436;DHT22;11385;50.822;4.324;2024-03-22T14:01:05;13.50;99.90
22436;DHT22;11385;50.822;4.324;2024-03-22T14:03:32;13.40;99.90
22436;DHT22;11385;50.822;4.324;2024-03-22T14:05:59;13.30;99.90
22436;DHT22;11385;50.822;4.324;2024-03-22T14:08:25;13.10;99.90
22436;DHT22;11385;50.822;4.324;2024-03-22T14:10:53;13.00;99.90
22436;DHT22;11385;50.822;4.324;2024-03-22T14:13:19;13.00;99.90
22436;DHT22;11385;50.822;4.324;2024-03-22T14:15:46;12.90;99.90
22436;DHT22;11385;50.822;4.324;2024-03-22T14:18:14;13.00;99.90
22436;DHT22;11385;50.822;4.324;2024-03-22T14:20:41;13.00;99.90
22436;DHT22;11385;50.822;4.324;2024-03-22T14:23:07;12.80;99.90
22436;DHT22;11385;50.822;4.324;2024-03-22T14:25:35;12.70;99.90
22436;DHT22;11385;50.822;4.324;2024-03-22T14:28:01;12.50;99.90
22436;DHT22;11385;50.822;4.324;2024-03-22T14:30:30;12.50;99.90
22436;DHT22;11385;50.822;4.324;2024-03-22T14:32:57;12.40;99.90
22436;DHT22;11385;50.822;4.324;2024-03-22T14:35:23;12.40;99.90
22436;DHT22;11385;50.822;4.324;2024-03-22T14:37:50;12.50;99.90
22436;DHT22;11385;50.822;4.324;2024-03-22T14:40:18;12.30;99.90
22436;DHT22;11385;50.822;4.324;2024-03-22T14:42:45;12.30;99.90
22436;DHT22;11385;50.822;4.324;2024-03-22T14:45:11;12.30;99.90
22436;DHT22;11385;50.822;4.324;2024-03-22T14:47:38;12.30;99.90
22436;DHT22;11385;50.822;4.324;2024-03-22T14:50:05;12.20;99.90
22436;DHT22;11385;50.822;4.324;2024-03-22T14:52:33;12.00;99.90
22436;DHT22;11385;50.822;4.324;2024-03-22T14:55:00;11.80;99.90
22436;DHT22;11385;50.822;4.324;2024-03-22T14:57:26;11.90;99.90
22436;DHT22;11385;50.822;4.324;2024-03-22T14:59:53;11.90;99.90
22436;DHT22;11385;50.822;4.324;2024-03-22T15:02:19;11.80;99.90
22436;DHT22;11385;50.822;4.324;2024-03-22T15:04:46;11.90;99.90
22436;DHT22;11385;50.822;4.324;2024-03-22T15:07:13;11.90;99.90
22436;DHT22;11385;50.822;4.324;2024-03-22T15:09:42;11.70;99.90
22436;DHT22;11385;50.822;4.324;2024-03-22T15:12:08;11.80;99.90
22436;DHT22;11385;50.822;4.324;2024-03-22T15:14:35;11.90;99.90
22436;DHT22;11385;50.822;4.324;2024-03-22T15:17:03;11.90;99.90
22436;DHT22;11385;50.822;4.324;2024-03-22T15:19:30;11.90;99.90
22436;DHT22;11385;50.822;4.324;2024-03-22T15:21:56;11.90;99.90
22436;DHT22;11385;50.822;4.324;2024-03-22T15:24:23;11.80;99.90
22436;DHT22;11385;50.822;4.324;2024-03-22T15:26:50;11.80;99.90
22436;DHT22;11385;50.822;4.324;2024-03-22T15:29:17;11.80;99.90